createdAt,value
2019-03-23T00:00:56.523Z,48.23
2019-03-23T00:03:24.743Z,49.47
2019-03-23T00:05:51.375Z,45.00
2019-03-23T00:08:17.957Z,45.57
2019-03-23T00:10:44.566Z,48.37
2019-03-23T00:13:11.145Z,45.90
2019-03-23T00:15:37.767Z,48.67
2019-03-23T00:18:04.345Z,48.87
2019-03-23T00:20:30.877Z,47.30
2019-03-23T00:22:57.453Z,47.17
2019-03-23T00:25:24.584Z,46.20
2019-03-23T00:27:51.251Z,46.10
2019-03-23T00:30:17.897Z,48.47
2019-03-23T00:32:44.554Z,44.40
2019-03-23T00:35:11.479Z,48.53
2019-03-23T00:37:38.003Z,44.50
2019-03-23T00:40:06.509Z,46.93
2019-03-23T00:42:33.127Z,46.03
2019-03-23T00:44:59.932Z,46.90
2019-03-23T00:47:27.333Z,45.30
2019-03-23T00:49:54.002Z,45.73
2019-03-23T00:52:20.707Z,44.33
2019-03-23T00:54:47.266Z,47.07
2019-03-23T00:57:13.882Z,45.57
2019-03-23T00:59:40.533Z,45.73
2019-03-23T01:02:07.053Z,46.63
2019-03-23T01:04:33.728Z,44.43
2019-03-23T01:07:00.256Z,44.23
2019-03-23T01:09:26.819Z,45.83
2019-03-23T01:11:53.333Z,46.90
2019-03-23T01:14:19.999Z,44.77
2019-03-23T01:16:46.516Z,43.03
2019-03-23T01:19:13.078Z,44.27
2019-03-23T01:21:39.599Z,45.70
2019-03-23T01:24:06.113Z,47.03
2019-03-23T01:26:32.676Z,45.63
2019-03-23T01:28:59.097Z,45.10
2019-03-23T01:31:25.647Z,45.63
2019-03-23T01:33:52.876Z,47.97
2019-03-23T01:36:19.838Z,45.60
2019-03-23T01:38:46.573Z,46.47
2019-03-23T01:41:13.633Z,46.97
2019-03-23T01:43:40.244Z,46.53
2019-03-23T01:46:06.897Z,47.47
2019-03-23T01:48:33.417Z,47.07
2019-03-23T01:51:00.271Z,47.30
2019-03-23T01:53:26.807Z,46.73
2019-03-23T01:55:53.365Z,46.30
2019-03-23T01:58:19.891Z,44.90
2019-03-23T02:00:46.451Z,47.50
2019-03-23T02:03:12.974Z,46.33
2019-03-23T02:05:39.601Z,48.10
2019-03-23T02:08:05.988Z,46.80
2019-03-23T02:10:32.553Z,44.80
2019-03-23T02:12:59.069Z,44.90
2019-03-23T02:15:25.644Z,47.77
2019-03-23T02:17:52.665Z,47.33
2019-03-23T02:20:19.188Z,45.50
2019-03-23T02:22:45.643Z,45.47
2019-03-23T02:25:12.383Z,45.60
2019-03-23T02:27:38.833Z,45.47
2019-03-23T02:30:08.256Z,46.33
2019-03-23T02:32:34.700Z,46.73
2019-03-23T02:35:01.231Z,45.67
2019-03-23T02:37:28.331Z,45.10
2019-03-23T02:39:55.159Z,44.10
2019-03-23T02:42:21.838Z,45.97
2019-03-23T02:44:48.361Z,47.13
2019-03-23T02:47:14.938Z,47.17
2019-03-23T02:49:41.441Z,47.07
2019-03-23T02:52:07.999Z,47.20
2019-03-23T02:54:34.526Z,46.10
2019-03-23T02:57:01.081Z,43.43
2019-03-23T02:59:27.705Z,47.27
2019-03-23T03:01:54.351Z,46.67
2019-03-23T03:04:20.911Z,47.17
2019-03-23T03:06:47.558Z,48.47
2019-03-23T03:09:14.180Z,47.60
2019-03-23T03:11:40.841Z,45.03
2019-03-23T03:14:07.354Z,45.93
2019-03-23T03:16:33.980Z,47.07
2019-03-23T03:19:00.651Z,47.03
2019-03-23T03:21:27.267Z,44.17
2019-03-23T03:23:53.835Z,44.20
2019-03-23T03:26:20.453Z,45.50
2019-03-23T03:28:47.018Z,45.53
2019-03-23T03:31:13.531Z,45.97
2019-03-23T03:33:40.093Z,47.33
2019-03-23T03:36:06.495Z,46.10
2019-03-23T03:38:33.053Z,50.27
2019-03-23T03:40:59.670Z,48.60
2019-03-23T03:43:26.433Z,49.47
2019-03-23T03:45:53.063Z,48.37
2019-03-23T03:48:19.732Z,48.30
2019-03-23T03:50:46.257Z,49.27
2019-03-23T03:53:12.815Z,46.90
2019-03-23T03:55:39.337Z,50.00
2019-03-23T03:58:05.905Z,45.80
2019-03-23T04:00:32.442Z,45.57
2019-03-23T04:02:58.988Z,46.17
2019-03-23T04:05:25.632Z,43.57
2019-03-23T04:07:52.304Z,45.97
2019-03-23T04:10:18.802Z,44.30
2019-03-23T04:12:45.461Z,44.10
2019-03-23T04:15:12.492Z,42.03
2019-03-23T04:17:39.321Z,41.57
2019-03-23T04:20:07.085Z,42.70
2019-03-23T04:22:33.708Z,39.77
2019-03-23T04:25:00.583Z,40.70
2019-03-23T04:27:27.305Z,39.40
2019-03-23T04:29:53.864Z,41.10
2019-03-23T04:32:20.391Z,42.40
2019-03-23T04:34:46.957Z,39.70
2019-03-23T04:37:13.494Z,40.77
2019-03-23T04:39:40.048Z,42.73
2019-03-23T04:42:06.563Z,40.30
2019-03-23T04:44:33.231Z,38.40
2019-03-23T04:46:59.836Z,39.17
2019-03-23T04:49:26.597Z,39.20
2019-03-23T04:51:53.124Z,40.60
2019-03-23T04:54:19.897Z,40.17
2019-03-23T04:56:46.534Z,37.93
2019-03-23T04:59:13.292Z,38.20
2019-03-23T05:01:39.928Z,38.80
2019-03-23T05:04:06.617Z,38.60
2019-03-23T05:06:33.101Z,37.17
2019-03-23T05:08:59.764Z,39.23
2019-03-23T05:11:26.279Z,38.20
2019-03-23T05:13:52.848Z,36.97
2019-03-23T05:16:19.383Z,37.50
2019-03-23T05:18:45.943Z,39.20
2019-03-23T05:21:12.579Z,39.40
2019-03-23T05:23:39.132Z,35.37
2019-03-23T05:26:05.761Z,38.57
2019-03-23T05:28:34.023Z,37.30
2019-03-23T05:31:00.601Z,39.73
2019-03-23T05:33:28.885Z,40.60
2019-03-23T05:35:56.071Z,39.63
2019-03-23T05:38:22.731Z,39.83
2019-03-23T05:40:49.972Z,41.17
2019-03-23T05:43:16.398Z,38.90
2019-03-23T05:45:43.008Z,43.37
2019-03-23T05:48:09.633Z,41.20
2019-03-23T05:50:36.294Z,42.73
2019-03-23T05:53:02.922Z,44.60
2019-03-23T05:55:29.571Z,44.47
2019-03-23T05:57:56.206Z,48.87
2019-03-23T06:00:22.781Z,49.80
2019-03-23T06:02:49.306Z,54.43
2019-03-23T06:05:15.988Z,55.30
2019-03-23T06:07:42.634Z,55.87
2019-03-23T06:10:09.399Z,53.90
2019-03-23T06:12:35.922Z,59.47
2019-03-23T06:15:05.377Z,58.90
2019-03-23T06:17:31.800Z,58.03
2019-03-23T06:19:58.460Z,61.60
2019-03-23T06:22:25.080Z,65.63
2019-03-23T06:24:51.635Z,64.87
2019-03-23T06:27:18.260Z,63.97
2019-03-23T06:29:44.916Z,64.47
2019-03-23T06:32:11.637Z,66.87
2019-03-23T06:34:38.311Z,69.73
2019-03-23T06:37:04.943Z,71.87
2019-03-23T06:39:31.599Z,77.37
2019-03-23T06:41:58.128Z,76.80
2019-03-23T06:44:24.796Z,80.20
2019-03-23T06:46:51.308Z,74.67
2019-03-23T06:49:18.060Z,75.50
2019-03-23T06:51:44.589Z,72.80
2019-03-23T06:54:11.255Z,73.97
2019-03-23T06:56:37.772Z,71.90
2019-03-23T06:59:04.386Z,68.10
2019-03-23T07:01:31.184Z,71.13
2019-03-23T07:03:57.745Z,69.83
2019-03-23T07:06:24.421Z,65.13
2019-03-23T07:08:51.073Z,65.17
2019-03-23T07:11:17.740Z,66.13
2019-03-23T07:13:44.476Z,67.37
2019-03-23T07:16:11.017Z,66.03
2019-03-23T07:18:37.644Z,66.90
2019-03-23T07:21:04.206Z,66.10
2019-03-23T07:23:30.723Z,64.37
2019-03-23T07:25:57.293Z,66.10
2019-03-23T07:28:23.912Z,66.60
2019-03-23T07:30:50.680Z,56.47
2019-03-23T07:33:18.905Z,61.63
2019-03-23T07:35:45.468Z,57.43
2019-03-23T07:38:12.191Z,54.10
2019-03-23T07:40:38.757Z,49.97
2019-03-23T07:43:05.464Z,48.70
2019-03-23T07:45:32.127Z,47.97
2019-03-23T07:48:00.354Z,47.80
2019-03-23T07:50:27.087Z,51.27
2019-03-23T07:52:53.837Z,48.37
2019-03-23T07:55:20.380Z,46.67
2019-03-23T07:57:47.013Z,46.47
2019-03-23T08:00:18.669Z,43.97
2019-03-23T08:02:45.313Z,43.90
2019-03-23T08:05:11.981Z,42.97
2019-03-23T08:07:38.729Z,46.90
2019-03-23T08:10:06.760Z,43.40
2019-03-23T08:12:33.619Z,46.83
2019-03-23T08:15:00.380Z,45.77
2019-03-23T08:17:26.917Z,36.40
2019-03-23T08:19:53.446Z,38.13
2019-03-23T08:22:20.106Z,39.23
2019-03-23T08:24:46.635Z,39.20
2019-03-23T08:27:13.284Z,39.90
2019-03-23T08:29:39.816Z,39.87
2019-03-23T08:32:06.472Z,41.27
2019-03-23T08:34:32.992Z,40.80
2019-03-23T08:37:02.039Z,38.90
2019-03-23T08:39:27.992Z,36.03
2019-03-23T08:41:54.552Z,34.50
2019-03-23T08:44:21.072Z,35.10
2019-03-23T08:46:47.627Z,35.97
2019-03-23T08:49:14.159Z,35.70
2019-03-23T08:51:40.701Z,37.03
2019-03-23T08:54:07.316Z,37.77
2019-03-23T08:56:33.948Z,38.53
2019-03-23T08:59:00.593Z,36.93
2019-03-23T09:01:27.316Z,40.60
2019-03-23T09:03:53.964Z,40.80
2019-03-23T09:06:20.621Z,36.57
2019-03-23T09:08:47.420Z,36.43
2019-03-23T09:11:20.430Z,34.67
2019-03-23T09:13:42.507Z,34.47
2019-03-23T09:16:09.020Z,35.20
2019-03-23T09:18:35.580Z,38.67
2019-03-23T09:21:02.194Z,40.07
2019-03-23T09:23:28.850Z,39.43
2019-03-23T09:25:55.474Z,37.37
2019-03-23T09:28:23.039Z,37.97
2019-03-23T09:30:49.664Z,39.83
2019-03-23T09:33:16.326Z,38.60
2019-03-23T09:35:42.849Z,38.00
2019-03-23T09:38:09.411Z,37.23
2019-03-23T09:40:35.928Z,39.30
2019-03-23T09:43:02.526Z,36.43
2019-03-23T09:45:29.159Z,38.57
2019-03-23T09:47:55.820Z,37.20
2019-03-23T09:50:22.248Z,37.50
2019-03-23T09:52:48.912Z,37.30
2019-03-23T09:55:15.475Z,36.90
2019-03-23T09:57:42.073Z,35.10
2019-03-23T10:00:10.917Z,38.00
2019-03-23T10:02:37.801Z,34.47
2019-03-23T10:05:05.969Z,37.70
2019-03-23T10:07:32.492Z,37.50
2019-03-23T10:09:59.164Z,37.23
2019-03-23T10:12:25.695Z,40.00
2019-03-23T10:14:52.261Z,38.87
2019-03-23T10:17:18.989Z,38.07
2019-03-23T10:19:45.545Z,38.00
2019-03-23T10:22:12.173Z,36.60
2019-03-23T10:24:38.831Z,39.53
2019-03-23T10:27:05.456Z,37.80
2019-03-23T10:29:32.018Z,35.73
2019-03-23T10:31:58.635Z,33.50
2019-03-23T10:34:25.210Z,37.70
2019-03-23T10:36:51.835Z,35.83
2019-03-23T10:39:18.692Z,36.97
2019-03-23T10:41:45.218Z,37.40
2019-03-23T10:44:11.884Z,37.77
2019-03-23T10:46:38.498Z,37.70
2019-03-23T10:49:05.156Z,35.40
2019-03-23T10:51:31.676Z,37.40
2019-03-23T10:53:58.336Z,34.33
2019-03-23T10:56:24.855Z,36.30
2019-03-23T10:58:51.499Z,37.63
2019-03-23T11:01:18.018Z,36.70
2019-03-23T11:03:44.789Z,36.50
2019-03-23T11:06:11.392Z,34.63
2019-03-23T11:08:37.924Z,35.27
2019-03-23T11:11:04.587Z,37.60
2019-03-23T11:13:34.141Z,37.07
2019-03-23T11:16:00.602Z,38.47
2019-03-23T11:18:27.212Z,36.63
2019-03-23T11:20:54.775Z,38.33
2019-03-23T11:23:21.994Z,37.90
2019-03-23T11:25:48.596Z,37.03
2019-03-23T11:28:15.128Z,39.17
2019-03-23T11:30:41.808Z,36.47
2019-03-23T11:33:08.277Z,37.37
2019-03-23T11:35:34.847Z,37.10
2019-03-23T11:38:02.490Z,35.97
2019-03-23T11:40:29.226Z,36.37
2019-03-23T11:42:57.093Z,36.77
2019-03-23T11:45:23.616Z,36.40
2019-03-23T11:47:50.152Z,38.10
2019-03-23T11:50:16.718Z,38.70
2019-03-23T11:52:46.936Z,36.53
2019-03-23T11:55:11.887Z,36.83
2019-03-23T11:57:38.507Z,39.40
2019-03-23T12:00:08.733Z,37.30
2019-03-23T12:02:35.249Z,36.93
2019-03-23T12:05:03.541Z,40.60
2019-03-23T12:07:30.074Z,39.83
2019-03-23T12:09:56.740Z,36.90
2019-03-23T12:12:23.411Z,37.60
2019-03-23T12:14:50.131Z,38.73
2019-03-23T12:17:16.701Z,33.90
2019-03-23T12:19:43.228Z,39.07
2019-03-23T12:22:09.877Z,39.13
2019-03-23T12:24:36.407Z,37.93
2019-03-23T12:27:03.088Z,38.23
2019-03-23T12:29:29.696Z,35.90
2019-03-23T12:31:56.351Z,34.13
2019-03-23T12:34:22.967Z,38.30
2019-03-23T12:36:50.545Z,34.57
2019-03-23T12:39:17.147Z,37.90
2019-03-23T12:41:43.899Z,37.10
2019-03-23T12:44:10.429Z,37.90
2019-03-23T12:46:36.888Z,37.33
2019-03-23T12:49:03.412Z,36.20
2019-03-23T12:51:29.972Z,36.80
2019-03-23T12:53:56.508Z,37.50
2019-03-23T12:56:23.060Z,39.77
2019-03-23T12:58:49.579Z,38.00
2019-03-23T13:01:16.253Z,39.07
2019-03-23T13:03:42.869Z,39.90
2019-03-23T13:06:09.555Z,37.60
2019-03-23T13:08:36.186Z,41.90
2019-03-23T13:11:02.863Z,41.13
2019-03-23T13:13:29.397Z,41.43
2019-03-23T13:15:55.921Z,38.80
2019-03-23T13:18:27.068Z,41.00
2019-03-23T13:20:51.096Z,40.77
2019-03-23T13:23:18.161Z,41.60
2019-03-23T13:25:44.779Z,40.40
2019-03-23T13:28:11.437Z,41.87
2019-03-23T13:30:38.081Z,38.27
2019-03-23T13:33:04.642Z,38.77
2019-03-23T13:35:31.160Z,39.30
2019-03-23T13:37:57.716Z,35.80
2019-03-23T13:40:24.244Z,39.27
2019-03-23T13:42:50.787Z,39.10
2019-03-23T13:45:17.314Z,38.60
2019-03-23T13:47:43.863Z,37.90
2019-03-23T13:50:12.000Z,37.20
2019-03-23T13:52:38.651Z,38.00
2019-03-23T13:55:06.072Z,38.80
2019-03-23T13:57:32.723Z,36.17
2019-03-23T13:59:59.349Z,38.83
2019-03-23T14:02:26.020Z,36.53
2019-03-23T14:04:52.580Z,34.50
2019-03-23T14:07:19.131Z,35.70
2019-03-23T14:09:45.761Z,35.27
2019-03-23T14:12:12.434Z,33.80
2019-03-23T14:14:39.053Z,32.20
2019-03-23T14:17:05.609Z,33.33
2019-03-23T14:19:32.224Z,29.47
2019-03-23T14:21:58.749Z,26.27
2019-03-23T14:24:36.319Z,27.03
2019-03-23T14:27:02.852Z,28.70
2019-03-23T14:29:29.410Z,29.27
2019-03-23T14:31:56.028Z,27.50
2019-03-23T14:34:22.580Z,27.37
2019-03-23T14:36:49.105Z,28.83
2019-03-23T14:39:15.661Z,31.30
2019-03-23T14:41:42.199Z,31.67
2019-03-23T14:44:08.787Z,33.83
2019-03-23T14:46:35.318Z,28.23
2019-03-23T14:49:02.130Z,30.87
2019-03-23T14:51:28.725Z,31.27
2019-03-23T14:53:55.385Z,32.90
2019-03-23T14:56:21.996Z,29.20
2019-03-23T14:58:48.589Z,28.83
2019-03-23T15:01:15.225Z,28.27
2019-03-23T15:03:41.902Z,28.60
2019-03-23T15:06:08.460Z,28.00
2019-03-23T15:08:35.053Z,27.87
2019-03-23T15:11:01.570Z,27.80
2019-03-23T15:13:28.232Z,28.50
2019-03-23T15:15:54.743Z,28.97
2019-03-23T15:18:21.706Z,26.77
2019-03-23T15:20:48.332Z,28.67
2019-03-23T15:23:15.117Z,29.37
2019-03-23T15:25:41.737Z,28.33
2019-03-23T15:28:08.896Z,24.73
2019-03-23T15:30:35.522Z,27.50
2019-03-23T15:33:04.762Z,24.80
2019-03-23T15:35:31.508Z,25.47
2019-03-23T15:37:58.149Z,25.30
2019-03-23T15:40:24.724Z,23.60
2019-03-23T15:42:51.436Z,26.03
2019-03-23T15:45:18.194Z,24.90
2019-03-23T15:47:46.415Z,26.80
2019-03-23T15:50:13.488Z,26.67
2019-03-23T15:52:40.026Z,26.63
2019-03-23T15:55:06.792Z,27.80
2019-03-23T15:57:34.319Z,28.00
2019-03-23T16:00:00.900Z,28.00
2019-03-23T16:02:27.415Z,26.80
2019-03-23T16:04:54.115Z,27.30
2019-03-23T16:07:29.206Z,27.73
2019-03-23T16:09:49.089Z,27.83
2019-03-23T16:12:15.712Z,27.90
2019-03-23T16:14:42.382Z,26.13
2019-03-23T16:17:08.973Z,27.60
2019-03-23T16:19:35.527Z,26.37
2019-03-23T16:22:02.964Z,28.57
2019-03-23T16:24:29.719Z,27.27
2019-03-23T16:26:57.059Z,26.87
2019-03-23T16:29:24.672Z,26.87
2019-03-23T16:31:51.200Z,24.83
2019-03-23T16:34:17.962Z,26.07
2019-03-23T16:36:45.517Z,24.40
2019-03-23T16:39:12.164Z,25.90
2019-03-23T16:41:38.681Z,25.13
2019-03-23T16:44:05.245Z,25.17
2019-03-23T16:46:31.765Z,22.63
2019-03-23T16:49:00.288Z,22.50
2019-03-23T16:51:26.542Z,24.27
2019-03-23T16:53:53.173Z,23.90
2019-03-23T16:56:19.841Z,23.23
2019-03-23T16:58:46.399Z,22.17
2019-03-23T17:01:13.008Z,22.53
2019-03-23T17:03:39.544Z,22.03
2019-03-23T17:06:06.132Z,23.87
2019-03-23T17:08:32.771Z,22.70
2019-03-23T17:10:59.327Z,21.57
2019-03-23T17:13:25.964Z,19.60
2019-03-23T17:15:52.776Z,19.60
2019-03-23T17:18:19.251Z,19.40
2019-03-23T17:20:45.906Z,18.47
2019-03-23T17:23:12.544Z,17.33
2019-03-23T17:25:39.092Z,14.93
2019-03-23T17:28:05.622Z,11.40
2019-03-23T17:30:32.189Z,9.73
2019-03-23T17:32:58.713Z,9.00
2019-03-23T17:35:25.264Z,7.30
2019-03-23T17:37:51.895Z,7.53
2019-03-23T17:40:18.448Z,5.30
2019-03-23T17:42:45.082Z,5.27
2019-03-23T17:45:11.948Z,4.60
2019-03-23T17:47:38.568Z,4.70
2019-03-23T17:50:05.543Z,4.87
2019-03-23T17:52:32.084Z,4.03
2019-03-23T17:54:58.804Z,3.70
2019-03-23T17:57:26.129Z,4.57
2019-03-23T17:59:53.148Z,5.60
2019-03-23T18:02:19.718Z,6.43
2019-03-23T18:04:46.462Z,6.63
2019-03-23T18:07:13.124Z,6.30
2019-03-23T18:09:39.884Z,5.47
2019-03-23T18:12:06.543Z,4.90
2019-03-23T18:14:34.207Z,5.23
2019-03-23T18:17:00.826Z,5.00
2019-03-23T18:19:27.453Z,5.47
2019-03-23T18:21:54.796Z,4.23
2019-03-23T18:24:21.424Z,3.80
2019-03-23T18:26:48.317Z,4.63
2019-03-23T18:29:16.563Z,5.40
2019-03-23T18:31:43.303Z,4.13
2019-03-23T18:34:09.948Z,5.07
2019-03-23T18:36:36.516Z,4.77
2019-03-23T18:39:04.242Z,3.87
2019-03-23T18:41:30.862Z,3.57
2019-03-23T18:43:57.489Z,4.80
2019-03-23T18:46:24.654Z,3.93
2019-03-23T18:48:51.357Z,3.70
2019-03-23T18:51:17.888Z,3.70
2019-03-23T18:53:44.552Z,4.00
2019-03-23T18:56:11.180Z,4.37
2019-03-23T18:58:38.091Z,3.80
2019-03-23T19:01:04.615Z,4.20
2019-03-23T19:03:31.189Z,3.80
2019-03-23T19:05:57.942Z,4.60
2019-03-23T19:08:24.500Z,3.40
2019-03-23T19:10:51.036Z,4.10
2019-03-23T19:13:17.607Z,4.13
2019-03-23T19:15:44.123Z,4.03
2019-03-23T19:18:10.680Z,3.80
2019-03-23T19:20:37.207Z,4.00
2019-03-23T19:23:04.270Z,4.77
2019-03-23T19:25:30.799Z,4.90
2019-03-23T19:27:58.025Z,5.17
2019-03-23T19:30:24.642Z,5.23
2019-03-23T19:32:51.295Z,6.03
2019-03-23T19:35:18.160Z,5.60
2019-03-23T19:37:44.729Z,5.70
2019-03-23T19:40:11.454Z,5.53
2019-03-23T19:42:38.344Z,6.27
2019-03-23T19:45:06.436Z,5.77
2019-03-23T19:47:33.206Z,5.43
2019-03-23T19:49:59.720Z,7.20
2019-03-23T19:52:26.568Z,6.33
2019-03-23T19:54:53.153Z,6.07
2019-03-23T19:57:20.256Z,6.27
2019-03-23T19:59:46.653Z,7.13
2019-03-23T20:02:13.674Z,6.70
2019-03-23T20:04:40.328Z,7.20
2019-03-23T20:07:06.981Z,6.70
2019-03-23T20:09:33.736Z,7.30
2019-03-23T20:12:00.607Z,5.90
2019-03-23T20:14:27.170Z,6.57
2019-03-23T20:16:53.706Z,6.20
2019-03-23T20:19:20.299Z,6.07
2019-03-23T20:21:46.878Z,6.00
2019-03-23T20:24:13.635Z,5.33
2019-03-23T20:26:40.360Z,5.43
2019-03-23T20:29:09.130Z,5.60
2019-03-23T20:31:35.485Z,5.57
2019-03-23T20:34:02.535Z,5.13
2019-03-23T20:36:29.374Z,4.70
2019-03-23T20:38:56.048Z,4.90
2019-03-23T20:41:22.847Z,5.80
2019-03-23T20:43:49.377Z,4.60
2019-03-23T20:46:16.119Z,5.00
2019-03-23T20:48:44.188Z,5.13
2019-03-23T20:51:11.600Z,4.80
2019-03-23T20:53:38.450Z,4.80
2019-03-23T20:56:05.001Z,4.70
2019-03-23T20:58:31.822Z,4.87
2019-03-23T21:00:58.488Z,5.10
2019-03-23T21:03:25.118Z,5.00
2019-03-23T21:05:51.735Z,6.10
2019-03-23T21:08:18.385Z,6.10
2019-03-23T21:10:45.039Z,6.23
2019-03-23T21:13:11.656Z,5.90
2019-03-23T21:15:38.291Z,6.10
2019-03-23T21:18:04.736Z,5.30
2019-03-23T21:20:31.379Z,6.83
2019-03-23T21:22:59.610Z,5.60
2019-03-23T21:25:26.272Z,5.80
2019-03-23T21:27:52.893Z,5.70
2019-03-23T21:30:20.866Z,6.13
2019-03-23T21:32:49.085Z,6.50
2019-03-23T21:35:16.738Z,5.50
2019-03-23T21:37:43.487Z,6.60
2019-03-23T21:40:11.139Z,5.00
2019-03-23T21:42:37.833Z,5.30
2019-03-23T21:45:06.509Z,5.63
2019-03-23T21:47:33.095Z,5.90
2019-03-23T21:50:00.130Z,5.60
2019-03-23T21:52:26.807Z,6.10
2019-03-23T21:54:53.474Z,6.63
2019-03-23T21:57:20.096Z,6.10
2019-03-23T21:59:46.964Z,5.53
2019-03-23T22:02:13.519Z,5.80
2019-03-23T22:04:40.067Z,6.20
2019-03-23T22:07:06.650Z,6.47
2019-03-23T22:09:33.255Z,5.53
2019-03-23T22:11:59.811Z,5.80
2019-03-23T22:14:26.451Z,5.47
2019-03-23T22:16:53.120Z,5.47
2019-03-23T22:19:19.744Z,5.70
2019-03-23T22:21:46.298Z,5.20
2019-03-23T22:24:12.820Z,4.83
2019-03-23T22:26:39.370Z,5.50
2019-03-23T22:29:05.899Z,5.50
2019-03-23T22:31:32.459Z,6.20
2019-03-23T22:33:59.012Z,4.80
2019-03-23T22:36:25.679Z,5.90
2019-03-23T22:38:52.335Z,6.10
2019-03-23T22:41:19.034Z,5.50
2019-03-23T22:43:45.566Z,5.90
2019-03-23T22:46:12.189Z,5.43
2019-03-23T22:48:38.676Z,5.80
2019-03-23T22:51:05.334Z,5.50
2019-03-23T22:53:31.998Z,4.83
2019-03-23T22:55:58.522Z,4.40
2019-03-23T22:58:25.049Z,5.27
2019-03-23T23:00:53.188Z,5.23
2019-03-23T23:03:19.836Z,5.27
2019-03-23T23:05:46.505Z,5.33
2019-03-23T23:08:13.359Z,5.80
2019-03-23T23:10:41.594Z,5.23
2019-03-23T23:13:08.175Z,5.60
2019-03-23T23:15:36.400Z,5.57
2019-03-23T23:18:03.291Z,4.43
2019-03-23T23:20:29.807Z,5.07
2019-03-23T23:22:56.469Z,5.07
2019-03-23T23:25:22.983Z,4.90
2019-03-23T23:27:49.638Z,5.10
2019-03-23T23:30:16.796Z,4.50
2019-03-23T23:32:43.348Z,6.87
2019-03-23T23:35:10.474Z,4.53
2019-03-23T23:37:37.255Z,4.97
2019-03-23T23:40:05.889Z,4.60
2019-03-23T23:42:32.454Z,4.43
2019-03-23T23:44:59.080Z,5.50
2019-03-23T23:47:25.734Z,4.90
2019-03-23T23:49:52.459Z,6.10
2019-03-23T23:52:19.116Z,4.90
2019-03-23T23:54:45.839Z,4.90
2019-03-23T23:57:12.501Z,5.23
2019-03-23T23:59:39.224Z,4.87
